sensor_id;sensor_type;location;lat;lon;timestamp;temperature;humidity
7129;DHT22;3606;52.930;8.644;2023-11-21T00:02:15;8.90;99.90
7129;DHT22;3606;52.930;8.644;2023-11-21T00:04:40;8.90;99.90
7129;DHT22;3606;52.930;8.644;2023-11-21T00:07:06;8.90;99.90
7129;DHT22;3606;52.930;8.644;2023-11-21T00:09:32;8.90;99.90
7129;DHT22;3606;52.930;8.644;2023-11-21T00:11:58;8.90;99.90
7129;DHT22;3606;52.930;8.644;2023-11-21T00:14:25;8.80;99.90
7129;DHT22;3606;52.930;8.644;2023-11-21T00:16:50;8.90;99.90
7129;DHT22;3606;52.930;8.644;2023-11-21T00:19:16;8.80;99.90
7129;DHT22;3606;52.930;8.644;2023-11-21T00:21:42;8.90;99.90
7129;DHT22;3606;52.930;8.644;2023-11-21T00:24:10;8.90;99.90
7129;DHT22;3606;52.930;8.644;2023-11-21T00:26:35;8.90;99.90
7129;DHT22;3606;52.930;8.644;2023-11-21T00:29:03;8.90;99.90
7129;DHT22;3606;52.930;8.644;2023-11-21T00:31:29;8.90;99.90
7129;DHT22;3606;52.930;8.644;2023-11-21T00:33:56;8.90;99.90
7129;DHT22;3606;52.930;8.644;2023-11-21T00:36:21;9.00;99.90
7129;DHT22;3606;52.930;8.644;2023-11-21T00:38:47;9.00;99.90
7129;DHT22;3606;52.930;8.644;2023-11-21T00:41:14;9.00;99.90
7129;DHT22;3606;52.930;8.644;2023-11-21T00:43:39;8.90;99.90
7129;DHT22;3606;52.930;8.644;2023-11-21T00:46:05;8.90;99.90
7129;DHT22;3606;52.930;8.644;2023-11-21T00:48:34;9.00;99.90
7129;DHT22;3606;52.930;8.644;2023-11-21T00:51:00;8.90;99.90
7129;DHT22;3606;52.930;8.644;2023-11-21T00:53:26;8.90;99.90
7129;DHT22;3606;52.930;8.644;2023-11-21T00:55:52;8.90;99.90
7129;DHT22;3606;52.930;8.644;2023-11-21T00:58:24;8.90;99.90
7129;DHT22;3606;52.930;8.644;2023-11-21T01:00:50;8.90;99.90
7129;DHT22;3606;52.930;8.644;2023-11-21T01:03:15;8.90;99.90
7129;DHT22;3606;52.930;8.644;2023-11-21T01:05:41;8.90;99.90
7129;DHT22;3606;52.930;8.644;2023-11-21T01:08:06;8.90;99.90
7129;DHT22;3606;52.930;8.644;2023-11-21T01:10:32;8.90;99.90
7129;DHT22;3606;52.930;8.644;2023-11-21T01:12:59;8.90;99.90
7129;DHT22;3606;52.930;8.644;2023-11-21T01:15:25;8.90;99.90
7129;DHT22;3606;52.930;8.644;2023-11-21T01:17:51;8.90;99.90
7129;DHT22;3606;52.930;8.644;2023-11-21T01:20:17;8.90;99.90
7129;DHT22;3606;52.930;8.644;2023-11-21T01:22:43;9.00;99.90
7129;DHT22;3606;52.930;8.644;2023-11-21T01:25:09;9.00;99.90
7129;DHT22;3606;52.930;8.644;2023-11-21T01:27:36;9.00;99.90
7129;DHT22;3606;52.930;8.644;2023-11-21T01:30:02;9.00;99.90
7129;DHT22;3606;52.930;8.644;2023-11-21T01:32:28;9.00;99.90
7129;DHT22;3606;52.930;8.644;2023-11-21T01:34:54;9.00;99.90
7129;DHT22;3606;52.930;8.644;2023-11-21T01:37:21;9.00;99.90
7129;DHT22;3606;52.930;8.644;2023-11-21T01:39:47;9.00;99.90
7129;DHT22;3606;52.930;8.644;2023-11-21T01:42:13;9.00;99.90
7129;DHT22;3606;52.930;8.644;2023-11-21T01:44:39;9.00;99.90
7129;DHT22;3606;52.930;8.644;2023-11-21T01:47:06;9.00;99.90
7129;DHT22;3606;52.930;8.644;2023-11-21T01:49:35;9.00;99.90
7129;DHT22;3606;52.930;8.644;2023-11-21T01:52:01;9.00;99.90
7129;DHT22;3606;52.930;8.644;2023-11-21T01:54:28;9.00;99.90
7129;DHT22;3606;52.930;8.644;2023-11-21T01:56:58;9.00;99.90
7129;DHT22;3606;52.930;8.644;2023-11-21T01:59:38;9.00;99.90
7129;DHT22;3606;52.930;8.644;2023-11-21T02:02:05;9.10;99.90
7129;DHT22;3606;52.930;8.644;2023-11-21T02:04:34;9.10;99.90
7129;DHT22;3606;52.930;8.644;2023-11-21T02:07:00;9.10;99.90
7129;DHT22;3606;52.930;8.644;2023-11-21T02:09:27;9.10;99.90
7129;DHT22;3606;52.930;8.644;2023-11-21T02:11:53;9.20;99.90
7129;DHT22;3606;52.930;8.644;2023-11-21T02:14:24;9.20;99.90
7129;DHT22;3606;52.930;8.644;2023-11-21T02:16:52;9.10;99.90
7129;DHT22;3606;52.930;8.644;2023-11-21T02:19:18;9.20;99.90
7129;DHT22;3606;52.930;8.644;2023-11-21T02:21:51;9.10;99.90
7129;DHT22;3606;52.930;8.644;2023-11-21T02:24:21;9.10;99.90
7129;DHT22;3606;52.930;8.644;2023-11-21T02:26:47;9.20;99.90
7129;DHT22;3606;52.930;8.644;2023-11-21T02:29:13;9.20;99.90
7129;DHT22;3606;52.930;8.644;2023-11-21T02:31:39;9.20;99.90
7129;DHT22;3606;52.930;8.644;2023-11-21T02:34:16;9.20;99.90
7129;DHT22;3606;52.930;8.644;2023-11-21T02:36:43;9.20;99.90
7129;DHT22;3606;52.930;8.644;2023-11-21T02:39:10;9.20;99.90
7129;DHT22;3606;52.930;8.644;2023-11-21T02:41:39;9.30;99.90
7129;DHT22;3606;52.930;8.644;2023-11-21T02:44:08;9.20;99.90
7129;DHT22;3606;52.930;8.644;2023-11-21T02:46:34;9.20;99.90
7129;DHT22;3606;52.930;8.644;2023-11-21T02:49:01;9.20;99.90
7129;DHT22;3606;52.930;8.644;2023-11-21T02:51:27;9.30;99.90
7129;DHT22;3606;52.930;8.644;2023-11-21T02:53:53;9.30;99.90
7129;DHT22;3606;52.930;8.644;2023-11-21T02:56:18;9.30;99.90
7129;DHT22;3606;52.930;8.644;2023-11-21T02:58:45;9.20;99.90
7129;DHT22;3606;52.930;8.644;2023-11-21T03:01:11;9.30;99.90
7129;DHT22;3606;52.930;8.644;2023-11-21T03:03:38;9.30;99.90
7129;DHT22;3606;52.930;8.644;2023-11-21T03:06:06;9.30;99.90
7129;DHT22;3606;52.930;8.644;2023-11-21T03:08:31;9.30;99.90
7129;DHT22;3606;52.930;8.644;2023-11-21T03:10:57;9.30;99.90
7129;DHT22;3606;52.930;8.644;2023-11-21T03:13:23;9.20;99.90
7129;DHT22;3606;52.930;8.644;2023-11-21T03:15:49;9.20;99.90
7129;DHT22;3606;52.930;8.644;2023-11-21T03:18:15;9.20;99.90
7129;DHT22;3606;52.930;8.644;2023-11-21T03:20:40;9.30;99.90
7129;DHT22;3606;52.930;8.644;2023-11-21T03:23:06;9.30;99.90
7129;DHT22;3606;52.930;8.644;2023-11-21T03:25:32;9.30;99.90
7129;DHT22;3606;52.930;8.644;2023-11-21T03:27:58;9.30;99.90
7129;DHT22;3606;52.930;8.644;2023-11-21T03:30:23;9.30;99.90
7129;DHT22;3606;52.930;8.644;2023-11-21T03:32:49;9.30;99.90
7129;DHT22;3606;52.930;8.644;2023-11-21T03:35:15;9.30;99.90
7129;DHT22;3606;52.930;8.644;2023-11-21T03:37:40;9.30;99.90
7129;DHT22;3606;52.930;8.644;2023-11-21T03:40:07;9.40;99.90
7129;DHT22;3606;52.930;8.644;2023-11-21T03:42:38;9.40;99.90
7129;DHT22;3606;52.930;8.644;2023-11-21T03:45:05;9.40;99.90
7129;DHT22;3606;52.930;8.644;2023-11-21T03:47:30;9.40;99.90
7129;DHT22;3606;52.930;8.644;2023-11-21T03:49:56;9.30;99.90
7129;DHT22;3606;52.930;8.644;2023-11-21T03:52:21;9.40;99.90
7129;DHT22;3606;52.930;8.644;2023-11-21T03:54:47;9.40;99.90
7129;DHT22;3606;52.930;8.644;2023-11-21T03:57:12;9.30;99.90
7129;DHT22;3606;52.930;8.644;2023-11-21T03:59:42;9.40;99.90
7129;DHT22;3606;52.930;8.644;2023-11-21T04:02:08;9.40;99.90
7129;DHT22;3606;52.930;8.644;2023-11-21T04:04:34;9.50;99.90
7129;DHT22;3606;52.930;8.644;2023-11-21T04:06:59;9.50;99.90
7129;DHT22;3606;52.930;8.644;2023-11-21T04:09:25;9.50;99.90
7129;DHT22;3606;52.930;8.644;2023-11-21T04:11:52;9.50;99.90
7129;DHT22;3606;52.930;8.644;2023-11-21T04:14:17;9.50;99.90
7129;DHT22;3606;52.930;8.644;2023-11-21T04:16:43;9.60;99.90
7129;DHT22;3606;52.930;8.644;2023-11-21T04:19:09;9.50;99.90
7129;DHT22;3606;52.930;8.644;2023-11-21T04:21:37;9.60;99.90
7129;DHT22;3606;52.930;8.644;2023-11-21T04:24:03;9.60;99.90
7129;DHT22;3606;52.930;8.644;2023-11-21T04:26:29;9.50;99.90
7129;DHT22;3606;52.930;8.644;2023-11-21T04:28:55;9.60;99.90
7129;DHT22;3606;52.930;8.644;2023-11-21T04:31:20;9.60;99.90
7129;DHT22;3606;52.930;8.644;2023-11-21T04:33:46;9.60;99.90
7129;DHT22;3606;52.930;8.644;2023-11-21T04:36:12;9.50;99.90
7129;DHT22;3606;52.930;8.644;2023-11-21T04:38:37;9.50;99.90
7129;DHT22;3606;52.930;8.644;2023-11-21T04:41:03;9.60;99.90
7129;DHT22;3606;52.930;8.644;2023-11-21T04:43:28;9.50;99.90
7129;DHT22;3606;52.930;8.644;2023-11-21T04:45:55;9.60;99.90
7129;DHT22;3606;52.930;8.644;2023-11-21T04:48:20;9.60;99.90
7129;DHT22;3606;52.930;8.644;2023-11-21T04:50:46;9.50;99.90
7129;DHT22;3606;52.930;8.644;2023-11-21T04:53:11;9.50;99.90
7129;DHT22;3606;52.930;8.644;2023-11-21T04:55:40;9.50;99.90
7129;DHT22;3606;52.930;8.644;2023-11-21T04:58:06;9.50;99.90
7129;DHT22;3606;52.930;8.644;2023-11-21T05:00:31;9.50;99.90
7129;DHT22;3606;52.930;8.644;2023-11-21T05:02:57;9.50;99.90
7129;DHT22;3606;52.930;8.644;2023-11-21T05:05:22;9.40;99.90
7129;DHT22;3606;52.930;8.644;2023-11-21T05:07:49;9.40;99.90
7129;DHT22;3606;52.930;8.644;2023-11-21T05:10:15;9.40;99.90
7129;DHT22;3606;52.930;8.644;2023-11-21T05:12:41;9.30;99.90
7129;DHT22;3606;52.930;8.644;2023-11-21T05:15:07;9.20;99.90
7129;DHT22;3606;52.930;8.644;2023-11-21T05:17:37;9.20;99.90
7129;DHT22;3606;52.930;8.644;2023-11-21T05:20:04;9.20;99.90
7129;DHT22;3606;52.930;8.644;2023-11-21T05:22:34;9.20;99.90
7129;DHT22;3606;52.930;8.644;2023-11-21T05:25:00;9.10;99.90
7129;DHT22;3606;52.930;8.644;2023-11-21T05:27:25;9.10;99.90
7129;DHT22;3606;52.930;8.644;2023-11-21T05:29:51;9.00;99.90
7129;DHT22;3606;52.930;8.644;2023-11-21T05:32:16;9.00;99.90
7129;DHT22;3606;52.930;8.644;2023-11-21T05:34:43;9.00;99.90
7129;DHT22;3606;52.930;8.644;2023-11-21T05:37:08;9.00;99.90
7129;DHT22;3606;52.930;8.644;2023-11-21T05:39:34;9.00;99.90
7129;DHT22;3606;52.930;8.644;2023-11-21T05:41:59;8.90;99.90
7129;DHT22;3606;52.930;8.644;2023-11-21T05:44:25;8.80;99.90
7129;DHT22;3606;52.930;8.644;2023-11-21T05:46:51;8.80;99.90
7129;DHT22;3606;52.930;8.644;2023-11-21T05:49:16;8.80;99.90
7129;DHT22;3606;52.930;8.644;2023-11-21T05:51:42;8.80;99.90
7129;DHT22;3606;52.930;8.644;2023-11-21T05:54:07;8.70;99.90
7129;DHT22;3606;52.930;8.644;2023-11-21T05:56:33;8.70;99.90
7129;DHT22;3606;52.930;8.644;2023-11-21T05:58:59;8.60;99.90
7129;DHT22;3606;52.930;8.644;2023-11-21T06:01:25;8.60;99.90
7129;DHT22;3606;52.930;8.644;2023-11-21T06:03:54;8.50;99.90
7129;DHT22;3606;52.930;8.644;2023-11-21T06:06:20;8.50;99.90
7129;DHT22;3606;52.930;8.644;2023-11-21T06:08:50;8.50;99.90
7129;DHT22;3606;52.930;8.644;2023-11-21T06:11:16;8.50;99.90
7129;DHT22;3606;52.930;8.644;2023-11-21T06:13:41;8.50;99.90
7129;DHT22;3606;52.930;8.644;2023-11-21T06:16:08;8.40;99.90
7129;DHT22;3606;52.930;8.644;2023-11-21T06:18:33;8.40;99.90
7129;DHT22;3606;52.930;8.644;2023-11-21T06:21:00;8.40;99.90
7129;DHT22;3606;52.930;8.644;2023-11-21T06:23:26;8.40;99.90
7129;DHT22;3606;52.930;8.644;2023-11-21T06:25:51;8.30;99.90
7129;DHT22;3606;52.930;8.644;2023-11-21T06:28:18;8.30;99.90
7129;DHT22;3606;52.930;8.644;2023-11-21T06:30:44;8.30;99.90
7129;DHT22;3606;52.930;8.644;2023-11-21T06:33:10;8.20;99.90
7129;DHT22;3606;52.930;8.644;2023-11-21T06:35:36;8.20;99.90
7129;DHT22;3606;52.930;8.644;2023-11-21T06:38:02;8.20;99.90
7129;DHT22;3606;52.930;8.644;2023-11-21T06:40:28;8.20;99.90
7129;DHT22;3606;52.930;8.644;2023-11-21T06:42:54;8.10;99.90
7129;DHT22;3606;52.930;8.644;2023-11-21T06:45:19;8.10;99.90
7129;DHT22;3606;52.930;8.644;2023-11-21T06:47:45;8.00;99.90
7129;DHT22;3606;52.930;8.644;2023-11-21T06:50:11;8.00;99.90
7129;DHT22;3606;52.930;8.644;2023-11-21T06:52:37;8.00;99.90
7129;DHT22;3606;52.930;8.644;2023-11-21T06:55:03;7.90;99.90
7129;DHT22;3606;52.930;8.644;2023-11-21T06:57:28;7.80;99.90
7129;DHT22;3606;52.930;8.644;2023-11-21T06:59:54;7.80;99.90
7129;DHT22;3606;52.930;8.644;2023-11-21T07:02:19;7.80;99.90
7129;DHT22;3606;52.930;8.644;2023-11-21T07:04:45;7.70;99.90
7129;DHT22;3606;52.930;8.644;2023-11-21T07:07:12;7.70;99.90
7129;DHT22;3606;52.930;8.644;2023-11-21T07:09:37;7.70;99.90
7129;DHT22;3606;52.930;8.644;2023-11-21T07:12:03;7.70;99.90
7129;DHT22;3606;52.930;8.644;2023-11-21T07:14:31;7.70;99.90
7129;DHT22;3606;52.930;8.644;2023-11-21T07:16:57;7.70;99.90
7129;DHT22;3606;52.930;8.644;2023-11-21T07:19:23;7.60;99.90
7129;DHT22;3606;52.930;8.644;2023-11-21T07:21:49;7.60;99.90
7129;DHT22;3606;52.930;8.644;2023-11-21T07:24:18;7.60;99.90
7129;DHT22;3606;52.930;8.644;2023-11-21T07:26:43;7.60;99.90
7129;DHT22;3606;52.930;8.644;2023-11-21T07:29:09;7.70;99.90
7129;DHT22;3606;52.930;8.644;2023-11-21T07:31:34;7.70;99.90
7129;DHT22;3606;52.930;8.644;2023-11-21T07:34:00;7.60;99.90
7129;DHT22;3606;52.930;8.644;2023-11-21T07:36:26;7.60;99.90
7129;DHT22;3606;52.930;8.644;2023-11-21T07:38:52;7.60;99.90
7129;DHT22;3606;52.930;8.644;2023-11-21T07:41:18;7.60;99.90
7129;DHT22;3606;52.930;8.644;2023-11-21T07:43:47;7.50;99.90
7129;DHT22;3606;52.930;8.644;2023-11-21T07:46:13;7.50;99.90
7129;DHT22;3606;52.930;8.644;2023-11-21T07:48:39;7.40;99.90
7129;DHT22;3606;52.930;8.644;2023-11-21T07:51:05;7.40;99.90
7129;DHT22;3606;52.930;8.644;2023-11-21T07:53:32;7.30;99.90
7129;DHT22;3606;52.930;8.644;2023-11-21T07:55:59;7.30;99.90
7129;DHT22;3606;52.930;8.644;2023-11-21T07:58:27;7.30;99.90
7129;DHT22;3606;52.930;8.644;2023-11-21T08:00:53;7.40;99.90
7129;DHT22;3606;52.930;8.644;2023-11-21T08:03:19;7.40;99.90
7129;DHT22;3606;52.930;8.644;2023-11-21T08:05:44;7.50;99.90
7129;DHT22;3606;52.930;8.644;2023-11-21T08:08:10;7.50;99.90
7129;DHT22;3606;52.930;8.644;2023-11-21T08:10:36;7.50;99.90
7129;DHT22;3606;52.930;8.644;2023-11-21T08:13:02;7.50;99.90
7129;DHT22;3606;52.930;8.644;2023-11-21T08:15:29;7.60;99.90
7129;DHT22;3606;52.930;8.644;2023-11-21T08:17:55;7.60;99.90
7129;DHT22;3606;52.930;8.644;2023-11-21T08:20:20;7.60;99.90
7129;DHT22;3606;52.930;8.644;2023-11-21T08:22:48;7.60;99.90
7129;DHT22;3606;52.930;8.644;2023-11-21T08:25:14;7.60;99.90
7129;DHT22;3606;52.930;8.644;2023-11-21T08:27:39;7.50;99.90
7129;DHT22;3606;52.930;8.644;2023-11-21T08:30:06;7.60;99.90
7129;DHT22;3606;52.930;8.644;2023-11-21T08:32:32;7.60;99.90
7129;DHT22;3606;52.930;8.644;2023-11-21T08:34:59;7.70;99.90
7129;DHT22;3606;52.930;8.644;2023-11-21T08:37:25;7.70;99.90
7129;DHT22;3606;52.930;8.644;2023-11-21T08:39:52;7.80;99.90
7129;DHT22;3606;52.930;8.644;2023-11-21T08:42:18;7.80;99.90
7129;DHT22;3606;52.930;8.644;2023-11-21T08:44:44;7.90;99.90
7129;DHT22;3606;52.930;8.644;2023-11-21T08:47:10;7.90;99.90
7129;DHT22;3606;52.930;8.644;2023-11-21T08:49:35;7.80;99.90
7129;DHT22;3606;52.930;8.644;2023-11-21T08:52:01;7.80;99.90
7129;DHT22;3606;52.930;8.644;2023-11-21T08:54:27;7.80;99.90
7129;DHT22;3606;52.930;8.644;2023-11-21T08:56:53;7.90;99.90
7129;DHT22;3606;52.930;8.644;2023-11-21T08:59:20;7.90;99.90
7129;DHT22;3606;52.930;8.644;2023-11-21T09:01:46;7.90;99.90
7129;DHT22;3606;52.930;8.644;2023-11-21T09:04:12;7.90;99.90
7129;DHT22;3606;52.930;8.644;2023-11-21T09:06:38;7.90;99.90
7129;DHT22;3606;52.930;8.644;2023-11-21T09:09:05;7.90;99.90
7129;DHT22;3606;52.930;8.644;2023-11-21T09:11:34;7.90;99.90
7129;DHT22;3606;52.930;8.644;2023-11-21T09:14:01;8.00;99.90
7129;DHT22;3606;52.930;8.644;2023-11-21T09:16:26;7.90;99.90
7129;DHT22;3606;52.930;8.644;2023-11-21T09:18:52;7.90;99.90
7129;DHT22;3606;52.930;8.644;2023-11-21T09:21:17;7.80;99.90
7129;DHT22;3606;52.930;8.644;2023-11-21T09:23:47;7.80;99.90
7129;DHT22;3606;52.930;8.644;2023-11-21T09:26:13;7.80;99.90
7129;DHT22;3606;52.930;8.644;2023-11-21T09:28:41;7.80;99.90
7129;DHT22;3606;52.930;8.644;2023-11-21T09:31:11;7.90;99.90
7129;DHT22;3606;52.930;8.644;2023-11-21T09:33:37;7.90;99.90
7129;DHT22;3606;52.930;8.644;2023-11-21T09:36:04;8.00;99.90
7129;DHT22;3606;52.930;8.644;2023-11-21T09:38:30;8.10;99.90
7129;DHT22;3606;52.930;8.644;2023-11-21T09:40:56;8.20;99.90
7129;DHT22;3606;52.930;8.644;2023-11-21T09:43:25;8.20;99.90
7129;DHT22;3606;52.930;8.644;2023-11-21T09:46:00;8.20;99.90
7129;DHT22;3606;52.930;8.644;2023-11-21T09:48:27;8.40;99.90
7129;DHT22;3606;52.930;8.644;2023-11-21T09:50:54;8.40;99.90
7129;DHT22;3606;52.930;8.644;2023-11-21T09:53:21;8.40;99.90
7129;DHT22;3606;52.930;8.644;2023-11-21T09:55:48;8.40;99.90
7129;DHT22;3606;52.930;8.644;2023-11-21T09:58:16;8.40;99.90
7129;DHT22;3606;52.930;8.644;2023-11-21T10:00:43;8.50;99.90
7129;DHT22;3606;52.930;8.644;2023-11-21T10:03:09;8.60;99.90
7129;DHT22;3606;52.930;8.644;2023-11-21T10:05:38;8.70;99.90
7129;DHT22;3606;52.930;8.644;2023-11-21T10:08:07;8.70;99.90
7129;DHT22;3606;52.930;8.644;2023-11-21T10:10:33;8.70;99.90
7129;DHT22;3606;52.930;8.644;2023-11-21T10:13:03;8.80;99.90
7129;DHT22;3606;52.930;8.644;2023-11-21T10:15:35;8.80;99.90
7129;DHT22;3606;52.930;8.644;2023-11-21T10:18:07;8.90;99.90
7129;DHT22;3606;52.930;8.644;2023-11-21T10:20:33;8.90;99.90
7129;DHT22;3606;52.930;8.644;2023-11-21T10:23:00;8.90;99.90
7129;DHT22;3606;52.930;8.644;2023-11-21T10:25:29;8.90;99.90
7129;DHT22;3606;52.930;8.644;2023-11-21T10:27:59;8.90;99.90
7129;DHT22;3606;52.930;8.644;2023-11-21T10:30:34;9.00;99.90
7129;DHT22;3606;52.930;8.644;2023-11-21T10:33:04;9.00;99.90
7129;DHT22;3606;52.930;8.644;2023-11-21T10:35:45;9.10;99.90
7129;DHT22;3606;52.930;8.644;2023-11-21T10:38:22;9.10;99.90
7129;DHT22;3606;52.930;8.644;2023-11-21T10:40:50;9.10;99.90
7129;DHT22;3606;52.930;8.644;2023-11-21T10:43:17;9.00;99.90
7129;DHT22;3606;52.930;8.644;2023-11-21T10:45:43;9.00;99.90
7129;DHT22;3606;52.930;8.644;2023-11-21T10:48:15;9.00;99.90
7129;DHT22;3606;52.930;8.644;2023-11-21T10:50:41;8.80;99.90
7129;DHT22;3606;52.930;8.644;2023-11-21T10:53:07;9.00;99.90
7129;DHT22;3606;52.930;8.644;2023-11-21T10:55:33;9.00;99.90
7129;DHT22;3606;52.930;8.644;2023-11-21T10:58:04;9.00;99.90
7129;DHT22;3606;52.930;8.644;2023-11-21T11:00:31;9.20;99.90
7129;DHT22;3606;52.930;8.644;2023-11-21T11:02:57;9.30;99.90
7129;DHT22;3606;52.930;8.644;2023-11-21T11:05:25;9.40;99.90
7129;DHT22;3606;52.930;8.644;2023-11-21T11:08:05;9.40;99.90
7129;DHT22;3606;52.930;8.644;2023-11-21T11:10:31;9.30;99.90
7129;DHT22;3606;52.930;8.644;2023-11-21T11:12:58;9.30;99.90
7129;DHT22;3606;52.930;8.644;2023-11-21T11:15:24;9.10;99.90
7129;DHT22;3606;52.930;8.644;2023-11-21T11:17:50;9.00;99.90
7129;DHT22;3606;52.930;8.644;2023-11-21T11:20:17;8.90;99.90
7129;DHT22;3606;52.930;8.644;2023-11-21T11:28:51;9.20;99.90
7129;DHT22;3606;52.930;8.644;2023-11-21T11:34:21;9.30;99.90
7129;DHT22;3606;52.930;8.644;2023-11-21T11:37:04;9.30;99.90
7129;DHT22;3606;52.930;8.644;2023-11-21T11:39:41;9.40;99.90
7129;DHT22;3606;52.930;8.644;2023-11-21T11:42:16;9.60;99.90
7129;DHT22;3606;52.930;8.644;2023-11-21T11:50:02;9.60;99.90
7129;DHT22;3606;52.930;8.644;2023-11-21T11:52:47;10.00;99.90
7129;DHT22;3606;52.930;8.644;2023-11-21T11:55:15;10.40;99.90
7129;DHT22;3606;52.930;8.644;2023-11-21T11:57:46;10.70;99.90
7129;DHT22;3606;52.930;8.644;2023-11-21T12:00:13;10.70;99.90
7129;DHT22;3606;52.930;8.644;2023-11-21T12:02:51;10.60;99.90
7129;DHT22;3606;52.930;8.644;2023-11-21T12:05:18;10.40;99.90
7129;DHT22;3606;52.930;8.644;2023-11-21T12:07:57;10.20;99.90
7129;DHT22;3606;52.930;8.644;2023-11-21T12:10:27;10.00;99.90
7129;DHT22;3606;52.930;8.644;2023-11-21T12:12:56;9.80;99.90
7129;DHT22;3606;52.930;8.644;2023-11-21T12:15:22;9.70;99.90
7129;DHT22;3606;52.930;8.644;2023-11-21T12:17:49;9.50;99.90
7129;DHT22;3606;52.930;8.644;2023-11-21T12:20:16;9.40;99.90
7129;DHT22;3606;52.930;8.644;2023-11-21T12:22:45;9.50;99.90
7129;DHT22;3606;52.930;8.644;2023-11-21T12:25:15;9.60;99.90
7129;DHT22;3606;52.930;8.644;2023-11-21T12:27:42;9.80;99.90
7129;DHT22;3606;52.930;8.644;2023-11-21T12:30:09;9.70;99.90
7129;DHT22;3606;52.930;8.644;2023-11-21T12:32:39;9.60;99.90
7129;DHT22;3606;52.930;8.644;2023-11-21T12:35:07;9.50;99.90
7129;DHT22;3606;52.930;8.644;2023-11-21T12:37:33;9.30;99.90
7129;DHT22;3606;52.930;8.644;2023-11-21T12:39:59;9.30;99.90
7129;DHT22;3606;52.930;8.644;2023-11-21T12:42:25;9.30;99.90
7129;DHT22;3606;52.930;8.644;2023-11-21T12:47:50;9.30;99.90
7129;DHT22;3606;52.930;8.644;2023-11-21T12:50:19;9.20;99.90
7129;DHT22;3606;52.930;8.644;2023-11-21T12:52:49;9.30;99.90
7129;DHT22;3606;52.930;8.644;2023-11-21T12:55:17;9.30;99.90
7129;DHT22;3606;52.930;8.644;2023-11-21T12:57:44;9.30;99.90
7129;DHT22;3606;52.930;8.644;2023-11-21T13:00:11;9.10;99.90
7129;DHT22;3606;52.930;8.644;2023-11-21T13:02:40;9.00;99.90
7129;DHT22;3606;52.930;8.644;2023-11-21T13:05:08;8.90;99.90
7129;DHT22;3606;52.930;8.644;2023-11-21T13:07:46;8.90;99.90
7129;DHT22;3606;52.930;8.644;2023-11-21T13:10:13;8.80;99.90
7129;DHT22;3606;52.930;8.644;2023-11-21T13:12:45;8.80;99.90
7129;DHT22;3606;52.930;8.644;2023-11-21T13:15:14;8.70;99.90
7129;DHT22;3606;52.930;8.644;2023-11-21T13:17:43;8.60;99.90
7129;DHT22;3606;52.930;8.644;2023-11-21T13:20:11;8.50;99.90
7129;DHT22;3606;52.930;8.644;2023-11-21T13:22:52;8.40;99.90
7129;DHT22;3606;52.930;8.644;2023-11-21T13:25:28;8.30;99.90
7129;DHT22;3606;52.930;8.644;2023-11-21T13:27:54;8.30;99.90
7129;DHT22;3606;52.930;8.644;2023-11-21T13:30:21;8.20;99.90
7129;DHT22;3606;52.930;8.644;2023-11-21T13:32:56;8.40;99.90
7129;DHT22;3606;52.930;8.644;2023-11-21T13:35:28;8.30;99.90
7129;DHT22;3606;52.930;8.644;2023-11-21T13:38:04;8.30;99.90
7129;DHT22;3606;52.930;8.644;2023-11-21T13:40:31;8.30;99.90
7129;DHT22;3606;52.930;8.644;2023-11-21T13:43:00;8.30;99.90
7129;DHT22;3606;52.930;8.644;2023-11-21T13:45:29;8.30;99.90
7129;DHT22;3606;52.930;8.644;2023-11-21T13:47:56;8.40;99.90
7129;DHT22;3606;52.930;8.644;2023-11-21T13:50:25;8.40;99.90
7129;DHT22;3606;52.930;8.644;2023-11-21T13:53:01;8.50;99.90
7129;DHT22;3606;52.930;8.644;2023-11-21T13:55:36;8.50;99.90
7129;DHT22;3606;52.930;8.644;2023-11-21T13:58:02;8.40;99.90
7129;DHT22;3606;52.930;8.644;2023-11-21T14:00:29;8.40;99.90
7129;DHT22;3606;52.930;8.644;2023-11-21T14:03:10;8.30;99.90
7129;DHT22;3606;52.930;8.644;2023-11-21T14:05:43;8.20;99.90
7129;DHT22;3606;52.930;8.644;2023-11-21T14:08:10;8.10;99.90
7129;DHT22;3606;52.930;8.644;2023-11-21T14:10:37;8.00;99.90
7129;DHT22;3606;52.930;8.644;2023-11-21T14:13:09;7.80;99.90
7129;DHT22;3606;52.930;8.644;2023-11-21T14:15:39;7.70;99.90
7129;DHT22;3606;52.930;8.644;2023-11-21T14:18:08;7.60;99.90
7129;DHT22;3606;52.930;8.644;2023-11-21T14:20:39;7.50;99.90
7129;DHT22;3606;52.930;8.644;2023-11-21T14:23:06;7.50;99.90
7129;DHT22;3606;52.930;8.644;2023-11-21T14:25:35;7.40;99.90
7129;DHT22;3606;52.930;8.644;2023-11-21T14:28:05;7.40;99.90
7129;DHT22;3606;52.930;8.644;2023-11-21T14:30:32;7.40;99.90
7129;DHT22;3606;52.930;8.644;2023-11-21T14:33:01;7.40;99.90
7129;DHT22;3606;52.930;8.644;2023-11-21T14:35:27;7.30;99.90
7129;DHT22;3606;52.930;8.644;2023-11-21T14:37:53;7.30;99.90
7129;DHT22;3606;52.930;8.644;2023-11-21T14:40:19;7.30;99.90
7129;DHT22;3606;52.930;8.644;2023-11-21T14:42:52;7.30;99.90
7129;DHT22;3606;52.930;8.644;2023-11-21T14:45:22;7.30;99.90
7129;DHT22;3606;52.930;8.644;2023-11-21T14:47:51;7.20;99.90
7129;DHT22;3606;52.930;8.644;2023-11-21T14:50:40;7.10;99.90
7129;DHT22;3606;52.930;8.644;2023-11-21T14:53:12;7.10;99.90
7129;DHT22;3606;52.930;8.644;2023-11-21T14:55:40;7.10;99.90
7129;DHT22;3606;52.930;8.644;2023-11-21T14:58:20;7.10;99.90
7129;DHT22;3606;52.930;8.644;2023-11-21T15:00:56;7.00;99.90
7129;DHT22;3606;52.930;8.644;2023-11-21T15:03:27;7.00;99.90
7129;DHT22;3606;52.930;8.644;2023-11-21T15:06:02;7.00;99.90
7129;DHT22;3606;52.930;8.644;2023-11-21T15:09:05;6.90;99.90
7129;DHT22;3606;52.930;8.644;2023-11-21T15:11:34;6.90;99.90
7129;DHT22;3606;52.930;8.644;2023-11-21T15:13:59;6.90;99.90
7129;DHT22;3606;52.930;8.644;2023-11-21T15:16:25;6.90;99.90
7129;DHT22;3606;52.930;8.644;2023-11-21T15:18:52;6.80;99.90
7129;DHT22;3606;52.930;8.644;2023-11-21T15:21:19;6.80;99.90
7129;DHT22;3606;52.930;8.644;2023-11-21T15:23:46;6.70;99.90
7129;DHT22;3606;52.930;8.644;2023-11-21T15:26:12;6.70;99.90
7129;DHT22;3606;52.930;8.644;2023-11-21T15:28:38;6.70;99.90
7129;DHT22;3606;52.930;8.644;2023-11-21T15:31:03;6.70;99.90
7129;DHT22;3606;52.930;8.644;2023-11-21T15:33:30;6.70;99.90
7129;DHT22;3606;52.930;8.644;2023-11-21T15:35:55;6.70;99.90
7129;DHT22;3606;52.930;8.644;2023-11-21T15:38:21;6.60;99.90
7129;DHT22;3606;52.930;8.644;2023-11-21T15:40:47;6.60;99.90
7129;DHT22;3606;52.930;8.644;2023-11-21T15:43:14;6.50;99.90
7129;DHT22;3606;52.930;8.644;2023-11-21T15:45:40;6.60;99.90
7129;DHT22;3606;52.930;8.644;2023-11-21T15:48:06;6.60;99.90
7129;DHT22;3606;52.930;8.644;2023-11-21T15:50:32;6.60;99.90
7129;DHT22;3606;52.930;8.644;2023-11-21T15:52:58;6.60;99.90
7129;DHT22;3606;52.930;8.644;2023-11-21T15:55:27;6.60;99.90
7129;DHT22;3606;52.930;8.644;2023-11-21T15:57:52;6.60;99.90
7129;DHT22;3606;52.930;8.644;2023-11-21T16:00:18;6.60;99.90
7129;DHT22;3606;52.930;8.644;2023-11-21T16:02:46;6.60;99.90
7129;DHT22;3606;52.930;8.644;2023-11-21T16:05:12;6.60;99.90
7129;DHT22;3606;52.930;8.644;2023-11-21T16:07:42;6.60;99.90
7129;DHT22;3606;52.930;8.644;2023-11-21T16:10:08;6.50;99.90
7129;DHT22;3606;52.930;8.644;2023-11-21T16:12:36;6.50;99.90
7129;DHT22;3606;52.930;8.644;2023-11-21T16:15:05;6.40;99.90
7129;DHT22;3606;52.930;8.644;2023-11-21T16:17:37;6.40;99.90
7129;DHT22;3606;52.930;8.644;2023-11-21T16:20:03;6.30;99.90
7129;DHT22;3606;52.930;8.644;2023-11-21T16:22:39;6.30;99.90
7129;DHT22;3606;52.930;8.644;2023-11-21T16:25:06;6.40;99.90
7129;DHT22;3606;52.930;8.644;2023-11-21T16:27:36;6.40;99.90
7129;DHT22;3606;52.930;8.644;2023-11-21T16:30:04;6.30;99.90
7129;DHT22;3606;52.930;8.644;2023-11-21T16:32:30;6.30;99.90
7129;DHT22;3606;52.930;8.644;2023-11-21T16:34:57;6.40;99.90
7129;DHT22;3606;52.930;8.644;2023-11-21T16:37:25;6.30;99.90